Time;durP1;ratioP1;P1;durP2;ratioP2;P2;SDS_P1;SDS_P2;PMS_P1;PMS_P2;Temp;Humidity;BMP_temperature;BMP_pressure;BME280_temperature;BME280_humidity;BME280_pressure;Samples;Min_cycle;Max_cycle;Signal;HPM_P1;HPM_P2
2022/11/23 00:01:38;;;;;;;;;;;;;;;;;;4996743;28;19913;-52
2022/11/23 00:04:04;;;;;;;;;;;;;;;;;;4977062;28;19931;-51
2022/11/23 00:06:30;;;;;;;;;;;;;;;;;;4999281;28;19918;-52
2022/11/23 00:08:55;;;;;;;;;;;;;;;;;;4998304;28;20297;-52
2022/11/23 00:11:21;;;;;;;;;;;;;;;;;;4985732;28;19921;-51
2022/11/23 00:13:47;;;;;;;;;;;;;;;;;;4993684;28;20400;-51
2022/11/23 00:16:13;;;;;;;;;;;;;;;;;;4976771;28;20327;-52
2022/11/23 00:18:39;;;;;;;;;;;;;;;;;;5002080;28;19932;-51
2022/11/23 00:21:05;;;;;;;;;;;;;;;;;;4983100;28;20416;-52
2022/11/23 00:23:31;;;;;;;;;;;;;;;;;;4974817;28;19949;-51
2022/11/23 00:25:57;;;;;;;;;;;;;;;;;;5008938;28;20076;-54
2022/11/23 00:28:22;;;;;;;;;;;;;;;;;;4995734;28;19925;-51
2022/11/23 00:30:49;;;;;;;;;;;;;;;;;;4975085;28;19918;-53
2022/11/23 00:33:15;;;;;;;;;;;;;;;;;;4977931;28;19926;-50
2022/11/23 00:35:41;;;;;;;;;;;;;;;;;;4992726;28;19921;-50
2022/11/23 00:38:06;;;;;;;;;;;;;;;;;;5003953;28;19925;-51
2022/11/23 00:40:32;;;;;;;;;;;;;;;;;;4987788;28;19925;-52
2022/11/23 00:42:58;;;;;;;;;;;;;;;;;;4990758;28;19921;-52
2022/11/23 00:45:24;;;;;;;;;;;;;;;;;;4992661;28;19947;-52
2022/11/23 00:47:50;;;;;;;;;;;;;;;;;;4996646;28;20442;-52
2022/11/23 00:50:16;;;;;;;;;;;;;;;;;;5018704;28;19924;-52
2022/11/23 00:52:42;;;;;;;;;;;;;;;;;;5005375;28;20616;-52
2022/11/23 00:55:08;;;;;;;;;;;;;;;;;;5018237;28;19972;-51
2022/11/23 00:57:33;;;;;;;;;;;;;;;;;;4990239;28;20484;-51
2022/11/23 00:59:59;;;;;;;;;;;;;;;;;;4987801;28;20432;-52
2022/11/23 01:02:25;;;;;;;;;;;;;;;;;;4980496;28;19971;-51
2022/11/23 01:04:51;;;;;;;;;;;;;;;;;;4988328;28;20015;-51
2022/11/23 01:07:17;;;;;;;;;;;;;;;;;;4985646;28;19928;-52
2022/11/23 01:09:43;;;;;;;;;;;;;;;;;;4999569;28;20649;-51
2022/11/23 01:12:09;;;;;;;;;;;;;;;;;;4997450;28;19963;-52
2022/11/23 01:14:34;;;;;;;;;;;;;;;;;;4974828;28;19926;-52
2022/11/23 01:17:00;;;;;;;;;;;;;;;;;;4989416;28;20026;-52
2022/11/23 01:19:26;;;;;;;;;;;;;;;;;;4996821;28;19926;-51
2022/11/23 01:21:52;;;;;;;;;;;;;;;;;;4990750;28;19933;-52
2022/11/23 01:24:18;;;;;;;;;;;;;;;;;;4982023;28;19975;-51
2022/11/23 01:26:44;;;;;;;;;;;;;;;;;;4977943;28;21137;-52
2022/11/23 01:29:10;;;;;;;;;;;;;;;;;;4977153;28;19932;-53
2022/11/23 01:31:36;;;;;;;;;;;;;;;;;;5006307;28;20029;-51
2022/11/23 01:34:02;;;;;;;;;;;;;;;;;;4996836;28;20000;-52
2022/11/23 01:36:28;;;;;;;;;;;;;;;;;;5015633;28;19948;-51
2022/11/23 01:38:54;;;;;;;;;;;;;;;;;;4999589;28;19925;-51
2022/11/23 01:41:19;;;;;;;;;;;;;;;;;;5005379;28;19988;-52
2022/11/23 01:43:45;;;;;;;;;;;;;;;;;;5001431;28;19925;-53
2022/11/23 01:46:11;;;;;;;;;;;;;;;;;;4983426;28;19936;-52
2022/11/23 01:48:37;;;;;;;;;;;;;;;;;;4997855;28;19937;-52
2022/11/23 01:51:03;;;;;;;;;;;;;;;;;;5006504;28;19921;-52
2022/11/23 01:53:29;;;;;;;;;;;;;;;;;;5015068;28;20378;-51
2022/11/23 01:55:55;;;;;;;;;;;;;;;;;;4998695;28;19967;-51
2022/11/23 01:58:21;;;;;;;;;;;;;;;;;;4979872;28;19950;-52
2022/11/23 02:00:46;;;;;;;;;;;;;;;;;;4997772;28;19921;-52
2022/11/23 02:03:12;;;;;;;;;;;;;;;;;;5005828;28;19922;-52
2022/11/23 02:05:38;;;;;;;;;;;;;;;;;;4961966;28;19913;-52
2022/11/23 02:08:04;;;;;;;;;;;;;;;;;;4992324;28;19937;-52
2022/11/23 02:10:30;;;;;;;;;;;;;;;;;;5008910;28;19952;-52
2022/11/23 02:12:56;;;;;;;;;;;;;;;;;;4992940;28;20237;-52
2022/11/23 02:15:22;;;;;;;;;;;;;;;;;;4984584;28;19932;-50
2022/11/23 02:17:48;;;;;;;;;;;;;;;;;;5002209;28;19925;-52
2022/11/23 02:20:14;;;;;;;;;;;;;;;;;;4998674;28;19921;-52
2022/11/23 02:22:39;;;;;;;;;;;;;;;;;;5004461;28;20063;-53
2022/11/23 02:25:05;;;;;;;;;;;;;;;;;;4994317;28;20510;-52
2022/11/23 02:27:31;;;;;;;;;;;;;;;;;;4996245;28;20358;-51
2022/11/23 02:29:57;;;;;;;;;;;;;;;;;;5001851;28;19925;-51
2022/11/23 02:32:23;;;;;;;;;;;;;;;;;;5000445;28;20016;-52
2022/11/23 02:34:49;;;;;;;;;;;;;;;;;;5006852;28;20358;-52
2022/11/23 02:37:15;;;;;;;;;;;;;;;;;;4992811;28;20004;-52
2022/11/23 02:39:41;;;;;;;;;;;;;;;;;;4993404;28;19955;-51
2022/11/23 02:42:07;;;;;;;;;;;;;;;;;;5002669;28;19921;-52
2022/11/23 02:44:32;;;;;;;;;;;;;;;;;;5006512;28;19929;-52
2022/11/23 02:46:58;;;;;;;;;;;;;;;;;;4999107;28;19979;-51
2022/11/23 02:49:24;;;;;;;;;;;;;;;;;;4994357;28;20810;-52
2022/11/23 02:51:50;;;;;;;;;;;;;;;;;;4990363;28;19929;-52
2022/11/23 02:54:16;;;;;;;;;;;;;;;;;;5005786;28;19925;-52
2022/11/23 02:56:42;;;;;;;;;;;;;;;;;;5007046;28;19974;-52
2022/11/23 02:59:08;;;;;;;;;;;;;;;;;;5001259;28;19921;-52
2022/11/23 03:01:34;;;;;;;;;;;;;;;;;;5004825;28;19928;-52
2022/11/23 03:03:59;;;;;;;;;;;;;;;;;;5007808;28;19921;-52
2022/11/23 03:06:25;;;;;;;;;;;;;;;;;;4991236;28;20176;-51
2022/11/23 03:08:51;;;;;;;;;;;;;;;;;;4999779;28;19932;-52
2022/11/23 03:11:17;;;;;;;;;;;;;;;;;;4992327;28;19980;-51
2022/11/23 03:13:43;;;;;;;;;;;;;;;;;;4996596;28;20299;-51
2022/11/23 03:16:09;;;;;;;;;;;;;;;;;;5001123;28;19920;-51
2022/11/23 03:18:35;;;;;;;;;;;;;;;;;;5000906;28;20791;-52
2022/11/23 03:21:01;;;;;;;;;;;;;;;;;;5001686;28;20519;-52
2022/11/23 03:23:27;;;;;;;;;;;;;;;;;;4976927;28;20019;-51
2022/11/23 03:25:53;;;;;;;;;;;;;;;;;;4986306;28;20326;-51
2022/11/23 03:28:19;;;;;;;;;;;;;;;;;;4991948;28;19921;-52
2022/11/23 03:30:45;;;;;;;;;;;;;;;;;;4989862;28;19944;-51
2022/11/23 03:33:11;;;;;;;;;;;;;;;;;;4985441;28;19914;-51
2022/11/23 03:35:37;;;;;;;;;;;;;;;;;;4981081;28;20334;-52
2022/11/23 03:38:03;;;;;;;;;;;;;;;;;;4928940;28;1746494;-52
2022/11/23 03:40:29;;;;;;;;;;;;;;;;;;4984762;28;20276;-52
2022/11/23 03:42:55;;;;;;;;;;;;;;;;;;5004367;28;19925;-51
2022/11/23 03:45:21;;;;;;;;;;;;;;;;;;5000101;28;20050;-50
2022/11/23 03:47:47;;;;;;;;;;;;;;;;;;4990947;28;20506;-53
2022/11/23 03:50:12;;;;;;;;;;;;;;;;;;4994386;28;20008;-52
2022/11/23 03:52:38;;;;;;;;;;;;;;;;;;5003104;28;19921;-52
2022/11/23 03:55:04;;;;;;;;;;;;;;;;;;4984613;28;21108;-51
2022/11/23 03:57:30;;;;;;;;;;;;;;;;;;4987407;28;20083;-52
2022/11/23 03:59:56;;;;;;;;;;;;;;;;;;4986756;28;20008;-52
2022/11/23 04:02:22;;;;;;;;;;;;;;;;;;4990409;28;19925;-51
2022/11/23 04:04:48;;;;;;;;;;;;;;;;;;4983819;28;20027;-51
2022/11/23 04:07:13;;;;;;;;;;;;;;;;;;4978974;28;19932;-52
2022/11/23 04:09:39;;;;;;;;;;;;;;;;;;4976855;28;19924;-52
2022/11/23 04:12:05;;;;;;;;;;;;;;;;;;5001245;28;19929;-51
2022/11/23 04:14:31;;;;;;;;;;;;;;;;;;4992342;28;20472;-52
2022/11/23 04:16:57;;;;;;;;;;;;;;;;;;4996719;28;20304;-52
2022/11/23 04:19:23;;;;;;;;;;;;;;;;;;4991723;28;20472;-51
2022/11/23 04:21:49;;;;;;;;;;;;;;;;;;4997484;28;19967;-53
2022/11/23 04:24:15;;;;;;;;;;;;;;;;;;4993006;28;19925;-53
2022/11/23 04:26:41;;;;;;;;;;;;;;;;;;4998595;28;19928;-53
2022/11/23 04:29:06;;;;;;;;;;;;;;;;;;4969474;28;19929;-53
2022/11/23 04:31:32;;;;;;;;;;;;;;;;;;4997008;28;20417;-53
2022/11/23 04:33:58;;;;;;;;;;;;;;;;;;4993559;28;20005;-53
2022/11/23 04:36:24;;;;;;;;;;;;;;;;;;4997044;28;19960;-53
2022/11/23 04:38:50;;;;;;;;;;;;;;;;;;5008272;28;19925;-53
2022/11/23 04:41:16;;;;;;;;;;;;;;;;;;4995558;28;19922;-53
2022/11/23 04:43:42;;;;;;;;;;;;;;;;;;4968249;28;20925;-53
2022/11/23 04:46:08;;;;;;;;;;;;;;;;;;4987178;28;19951;-53
2022/11/23 04:48:33;;;;;;;;;;;;;;;;;;4998637;28;19937;-53
2022/11/23 04:50:59;;;;;;;;;;;;;;;;;;4992750;28;20015;-53
2022/11/23 04:53:25;;;;;;;;;;;;;;;;;;4984273;28;20375;-53
2022/11/23 04:55:51;;;;;;;;;;;;;;;;;;4990967;28;19952;-53
2022/11/23 04:58:17;;;;;;;;;;;;;;;;;;4986025;28;19917;-53
2022/11/23 05:00:43;;;;;;;;;;;;;;;;;;4985520;28;19960;-53
2022/11/23 05:03:09;;;;;;;;;;;;;;;;;;4975673;28;20437;-53
2022/11/23 05:05:34;;;;;;;;;;;;;;;;;;4971869;28;19964;-52
2022/11/23 05:08:00;;;;;;;;;;;;;;;;;;4989417;28;19922;-52
2022/11/23 05:10:26;;;;;;;;;;;;;;;;;;4995330;28;20450;-52
2022/11/23 05:12:52;;;;;;;;;;;;;;;;;;4976754;28;19936;-51
2022/11/23 05:15:18;;;;;;;;;;;;;;;;;;4982189;28;19960;-51
2022/11/23 05:17:44;;;;;;;;;;;;;;;;;;4969726;28;19926;-52
2022/11/23 05:20:10;;;;;;;;;;;;;;;;;;4977030;28;19973;-53
2022/11/23 05:22:36;;;;;;;;;;;;;;;;;;4971913;28;20012;-52
2022/11/23 05:25:02;;;;;;;;;;;;;;;;;;4990686;28;20055;-52
2022/11/23 05:27:28;;;;;;;;;;;;;;;;;;4988429;28;19930;-52
2022/11/23 05:29:53;;;;;;;;;;;;;;;;;;4986361;28;20016;-53
2022/11/23 05:32:19;;;;;;;;;;;;;;;;;;4951025;28;19930;-52
2022/11/23 05:34:45;;;;;;;;;;;;;;;;;;4982393;28;20572;-52
2022/11/23 05:37:11;;;;;;;;;;;;;;;;;;4966237;28;19948;-53
2022/11/23 05:39:37;;;;;;;;;;;;;;;;;;4982615;28;19922;-53
2022/11/23 05:42:03;;;;;;;;;;;;;;;;;;4974322;28;19934;-52
2022/11/23 05:44:29;;;;;;;;;;;;;;;;;;4955786;28;20375;-52
2022/11/23 05:46:55;;;;;;;;;;;;;;;;;;4983212;28;19931;-53
2022/11/23 05:49:21;;;;;;;;;;;;;;;;;;4979963;28;20375;-52
2022/11/23 05:51:47;;;;;;;;;;;;;;;;;;4966012;28;21470;-53
2022/11/23 05:54:13;;;;;;;;;;;;;;;;;;4968016;28;19983;-53
2022/11/23 05:56:38;;;;;;;;;;;;;;;;;;4981762;28;19924;-53
2022/11/23 05:59:05;;;;;;;;;;;;;;;;;;4954756;28;19921;-53
2022/11/23 06:01:32;;;;;;;;;;;;;;;;;;4963387;28;19999;-53
2022/11/23 06:03:57;;;;;;;;;;;;;;;;;;4977007;28;20198;-52
2022/11/23 06:06:23;;;;;;;;;;;;;;;;;;4971949;28;20262;-52
2022/11/23 06:08:49;;;;;;;;;;;;;;;;;;4932759;28;19984;-52
2022/11/23 06:11:15;;;;;;;;;;;;;;;;;;4926616;28;20439;-52
2022/11/23 06:13:41;;;;;;;;;;;;;;;;;;4959937;28;19929;-53
2022/11/23 06:16:07;;;;;;;;;;;;;;;;;;4997071;28;19972;-52
2022/11/23 06:18:33;;;;;;;;;;;;;;;;;;4999520;28;20259;-52
2022/11/23 06:20:59;;;;;;;;;;;;;;;;;;5004083;28;19975;-53
2022/11/23 06:23:25;;;;;;;;;;;;;;;;;;5002745;28;19970;-53
2022/11/23 06:25:51;;;;;;;;;;;;;;;;;;4995527;28;19924;-53
2022/11/23 06:28:16;;;;;;;;;;;;;;;;;;4988780;28;19950;-53
2022/11/23 06:30:42;;;;;;;;;;;;;;;;;;4970368;28;19988;-53
2022/11/23 06:33:08;;;;;;;;;;;;;;;;;;4996301;28;20297;-53
2022/11/23 06:35:34;;;;;;;;;;;;;;;;;;4993826;28;19977;-53
2022/11/23 06:38:00;;;;;;;;;;;;;;;;;;5005762;28;20398;-52
2022/11/23 06:40:27;;;;;;;;;;;;;;;;;;4962051;28;19926;-52
2022/11/23 06:42:53;;;;;;;;;;;;;;;;;;5006661;28;19917;-53
2022/11/23 06:45:19;;;;;;;;;;;;;;;;;;4995475;28;19925;-53
2022/11/23 06:47:45;;;;;;;;;;;;;;;;;;4988615;28;19922;-53
2022/11/23 06:50:12;;;;;;;;;;;;;;;;;;5008032;28;20010;-53
2022/11/23 06:52:38;;;;;;;;;;;;;;;;;;4992696;28;19921;-53
2022/11/23 06:55:04;;;;;;;;;;;;;;;;;;4997624;28;20649;-53
2022/11/23 06:57:30;;;;;;;;;;;;;;;;;;4993721;28;19948;-53
2022/11/23 06:59:56;;;;;;;;;;;;;;;;;;5008535;28;19937;-53
2022/11/23 07:02:22;;;;;;;;;;;;;;;;;;4992483;28;20398;-53
2022/11/23 07:04:47;;;;;;;;;;;;;;;;;;5010692;28;19976;-52
2022/11/23 07:07:13;;;;;;;;;;;;;;;;;;5008883;28;19984;-53
2022/11/23 07:09:39;;;;;;;;;;;;;;;;;;4995276;28;20003;-53
2022/11/23 07:12:05;;;;;;;;;;;;;;;;;;4988624;28;20350;-52
2022/11/23 07:14:31;;;;;;;;;;;;;;;;;;4990179;28;19971;-53
2022/11/23 07:16:57;;;;;;;;;;;;;;;;;;5009118;28;19940;-56
2022/11/23 07:19:23;;;;;;;;;;;;;;;;;;4994800;28;20474;-52
2022/11/23 07:21:49;;;;;;;;;;;;;;;;;;5004533;28;20363;-53
2022/11/23 07:24:14;;;;;;;;;;;;;;;;;;4995851;28;19975;-53
2022/11/23 07:26:40;;;;;;;;;;;;;;;;;;4968997;28;19921;-53
2022/11/23 07:29:06;;;;;;;;;;;;;;;;;;5004242;28;20283;-53
2022/11/23 07:31:32;;;;;;;;;;;;;;;;;;4983573;28;19979;-53
2022/11/23 07:33:58;;;;;;;;;;;;;;;;;;4990074;28;19921;-53
2022/11/23 07:36:24;;;;;;;;;;;;;;;;;;4969379;28;19925;-53
2022/11/23 07:38:50;;;;;;;;;;;;;;;;;;4982182;28;20024;-53
2022/11/23 07:41:16;;;;;;;;;;;;;;;;;;4993928;28;19979;-53
2022/11/23 07:43:41;;;;;;;;;;;;;;;;;;4999121;28;19917;-53
2022/11/23 07:46:07;;;;;;;;;;;;;;;;;;5006121;28;20062;-52
2022/11/23 07:48:33;;;;;;;;;;;;;;;;;;4999211;28;20482;-52
2022/11/23 07:50:59;;;;;;;;;;;;;;;;;;5006008;28;20421;-53
2022/11/23 07:53:26;;;;;;;;;;;;;;;;;;4996276;28;19926;-53
2022/11/23 07:55:51;;;;;;;;;;;;;;;;;;4996593;28;19977;-52
2022/11/23 07:58:17;;;;;;;;;;;;;;;;;;4998806;28;19953;-53
2022/11/23 08:00:43;;;;;;;;;;;;;;;;;;4998864;28;20637;-53
2022/11/23 08:03:09;;;;;;;;;;;;;;;;;;4990620;28;20023;-53
2022/11/23 08:05:35;;;;;;;;;;;;;;;;;;4990933;28;20394;-53
2022/11/23 08:08:01;;;;;;;;;;;;;;;;;;4978956;28;19918;-53
2022/11/23 08:10:27;;;;;;;;;;;;;;;;;;5011781;28;19976;-54
2022/11/23 08:12:53;;;;;;;;;;;;;;;;;;5008928;28;20410;-53
2022/11/23 08:15:19;;;;;;;;;;;;;;;;;;5012810;28;19918;-53
2022/11/23 08:17:44;;;;;;;;;;;;;;;;;;5000613;28;20339;-53
2022/11/23 08:20:10;;;;;;;;;;;;;;;;;;5005530;28;19921;-53
2022/11/23 08:22:36;;;;;;;;;;;;;;;;;;4995636;28;19929;-52
2022/11/23 08:25:02;;;;;;;;;;;;;;;;;;5011458;28;19913;-53
2022/11/23 08:27:28;;;;;;;;;;;;;;;;;;5011723;28;19925;-53
2022/11/23 08:29:54;;;;;;;;;;;;;;;;;;5007636;28;20002;-53
2022/11/23 08:32:20;;;;;;;;;;;;;;;;;;5015194;28;19930;-53
2022/11/23 08:34:45;;;;;;;;;;;;;;;;;;5017176;28;19925;-53
2022/11/23 08:37:11;;;;;;;;;;;;;;;;;;5005091;28;19920;-53
2022/11/23 08:39:37;;;;;;;;;;;;;;;;;;4990390;28;19924;-53
2022/11/23 08:42:03;;;;;;;;;;;;;;;;;;5003443;28;20578;-53
2022/11/23 08:44:29;;;;;;;;;;;;;;;;;;5010636;28;19927;-53
2022/11/23 08:46:55;;;;;;;;;;;;;;;;;;4997333;28;19922;-53
2022/11/23 08:49:21;;;;;;;;;;;;;;;;;;5007475;28;19964;-54
2022/11/23 08:51:47;;;;;;;;;;;;;;;;;;5013683;28;20322;-53
2022/11/23 08:54:13;;;;;;;;;;;;;;;;;;5006760;28;19956;-53
2022/11/23 08:56:38;;;;;;;;;;;;;;;;;;5014410;28;19924;-53
2022/11/23 08:59:04;;;;;;;;;;;;;;;;;;5006653;28;19933;-53
2022/11/23 09:01:30;;;;;;;;;;;;;;;;;;5014213;28;19909;-54
2022/11/23 09:03:56;;;;;;;;;;;;;;;;;;5011678;28;19932;-53
2022/11/23 09:06:27;;;;;;;;;;;;;;;;;;5014863;28;19921;-53
2022/11/23 09:08:53;;;;;;;;;;;;;;;;;;5004848;28;19930;-53
2022/11/23 09:11:19;;;;;;;;;;;;;;;;;;5000503;28;20449;-53
2022/11/23 09:13:45;;;;;;;;;;;;;;;;;;5014657;28;19917;-53
2022/11/23 09:16:11;;;;;;;;;;;;;;;;;;5012640;28;20370;-53
2022/11/23 09:18:37;;;;;;;;;;;;;;;;;;5003242;28;19917;-54
2022/11/23 09:21:03;;;;;;;;;;;;;;;;;;5011086;28;20036;-54
2022/11/23 09:23:29;;;;;;;;;;;;;;;;;;4999288;28;20019;-54
2022/11/23 09:25:54;;;;;;;;;;;;;;;;;;4998830;28;20084;-53
2022/11/23 09:28:23;;;;;;;;;;;;;;;;;;5012598;28;20432;-53
2022/11/23 09:30:49;;;;;;;;;;;;;;;;;;4990401;28;20379;-54
2022/11/23 09:33:14;;;;;;;;;;;;;;;;;;5010440;28;19921;-53
2022/11/23 09:35:40;;;;;;;;;;;;;;;;;;5001369;28;19920;-53
2022/11/23 09:38:06;;;;;;;;;;;;;;;;;;5012574;28;20463;-54
2022/11/23 09:40:32;;;;;;;;;;;;;;;;;;5001562;28;19923;-54
2022/11/23 09:42:58;;;;;;;;;;;;;;;;;;5010175;28;20404;-54
2022/11/23 09:45:24;;;;;;;;;;;;;;;;;;4986814;28;19921;-54
2022/11/23 09:47:50;;;;;;;;;;;;;;;;;;5010688;28;20547;-54
2022/11/23 09:50:16;;;;;;;;;;;;;;;;;;4995645;28;19932;-54
2022/11/23 09:52:42;;;;;;;;;;;;;;;;;;5002945;28;19924;-54
2022/11/23 09:55:08;;;;;;;;;;;;;;;;;;4995529;28;19925;-53
2022/11/23 09:57:34;;;;;;;;;;;;;;;;;;5008898;28;20353;-53
2022/11/23 10:00:00;;;;;;;;;;;;;;;;;;5011158;28;19965;-53
2022/11/23 10:02:27;;;;;;;;;;;;;;;;;;5021304;28;19968;-55
2022/11/23 10:04:53;;;;;;;;;;;;;;;;;;4977987;28;19929;-55
2022/11/23 10:07:19;;;;;;;;;;;;;;;;;;5014300;28;19922;-55
2022/11/23 10:09:45;;;;;;;;;;;;;;;;;;5011633;28;19935;-55
2022/11/23 10:12:11;;;;;;;;;;;;;;;;;;5019859;28;20286;-55
2022/11/23 10:14:37;;;;;;;;;;;;;;;;;;4989702;28;19921;-55
2022/11/23 10:17:03;;;;;;;;;;;;;;;;;;5012271;28;20005;-55
2022/11/23 10:19:29;;;;;;;;;;;;;;;;;;4996376;28;20013;-54
2022/11/23 10:21:54;;;;;;;;;;;;;;;;;;5013113;28;20019;-54
2022/11/23 10:24:20;;;;;;;;;;;;;;;;;;4999949;28;19917;-54
2022/11/23 10:26:46;;;;;;;;;;;;;;;;;;5018407;28;20008;-55
2022/11/23 10:29:12;;;;;;;;;;;;;;;;;;5006152;28;20364;-55
2022/11/23 10:31:38;;;;;;;;;;;;;;;;;;5007415;28;20567;-55
2022/11/23 10:34:04;;;;;;;;;;;;;;;;;;5017418;28;19925;-54
2022/11/23 10:36:30;;;;;;;;;;;;;;;;;;5011533;28;20271;-55
2022/11/23 10:38:56;;;;;;;;;;;;;;;;;;4998773;28;20781;-54
2022/11/23 10:41:21;;;;;;;;;;;;;;;;;;5002380;28;20072;-55
2022/11/23 10:43:47;;;;;;;;;;;;;;;;;;5007395;28;19917;-55
2022/11/23 10:46:13;;;;;;;;;;;;;;;;;;5010627;28;20439;-55
2022/11/23 10:48:39;;;;;;;;;;;;;;;;;;5006924;28;19925;-54
2022/11/23 10:51:05;;;;;;;;;;;;;;;;;;5010385;28;19971;-55
2022/11/23 10:53:32;;;;;;;;;;;;;;;;;;5003488;28;19963;-55
2022/11/23 10:55:58;;;;;;;;;;;;;;;;;;5014201;28;19917;-55
2022/11/23 10:58:24;;;;;;;;;;;;;;;;;;5015567;28;20298;-55
2022/11/23 11:00:50;;;;;;;;;;;;;;;;;;5017646;28;19925;-55
2022/11/23 11:03:16;;;;;;;;;;;;;;;;;;4994315;28;20349;-55
2022/11/23 11:05:42;;;;;;;;;;;;;;;;;;5008025;28;19925;-55
2022/11/23 11:08:07;;;;;;;;;;;;;;;;;;5010652;28;20004;-55
2022/11/23 11:10:33;;;;;;;;;;;;;;;;;;4993016;28;19925;-55
2022/11/23 11:12:59;;;;;;;;;;;;;;;;;;5012378;28;20920;-55
2022/11/23 11:15:25;;;;;;;;;;;;;;;;;;5016303;28;19923;-55
2022/11/23 11:17:51;;;;;;;;;;;;;;;;;;5011591;28;20406;-55
2022/11/23 11:20:17;;;;;;;;;;;;;;;;;;5007234;28;19917;-55
2022/11/23 11:22:43;;;;;;;;;;;;;;;;;;5009586;28;19976;-54
2022/11/23 11:25:08;;;;;;;;;;;;;;;;;;5002111;28;20417;-54
2022/11/23 11:27:34;;;;;;;;;;;;;;;;;;5009687;28;19922;-55
2022/11/23 11:30:00;;;;;;;;;;;;;;;;;;5009555;28;19930;-54
2022/11/23 11:32:26;;;;;;;;;;;;;;;;;;5006761;28;19921;-54
2022/11/23 11:34:52;;;;;;;;;;;;;;;;;;4991547;28;20293;-54
2022/11/23 11:37:18;;;;;;;;;;;;;;;;;;5010813;28;19921;-54
2022/11/23 11:39:44;;;;;;;;;;;;;;;;;;5009403;28;20004;-54
2022/11/23 11:42:10;;;;;;;;;;;;;;;;;;5011947;28;20493;-54
2022/11/23 11:44:36;;;;;;;;;;;;;;;;;;4989915;28;19971;-55
2022/11/23 11:47:02;;;;;;;;;;;;;;;;;;5002071;28;19929;-54
2022/11/23 11:49:27;;;;;;;;;;;;;;;;;;5018739;28;19921;-54
2022/11/23 11:51:54;;;;;;;;;;;;;;;;;;5010565;28;20399;-55
2022/11/23 11:54:20;;;;;;;;;;;;;;;;;;5003808;28;20386;-54
2022/11/23 11:56:46;;;;;;;;;;;;;;;;;;5007514;28;21005;-55
2022/11/23 11:59:11;;;;;;;;;;;;;;;;;;5013889;28;19925;-55
2022/11/23 12:01:37;;;;;;;;;;;;;;;;;;5019537;28;20453;-54
2022/11/23 12:04:03;;;;;;;;;;;;;;;;;;4995240;28;19922;-55
2022/11/23 12:06:29;;;;;;;;;;;;;;;;;;5021135;28;19968;-54
2022/11/23 12:08:55;;;;;;;;;;;;;;;;;;5003745;28;19928;-55
2022/11/23 12:11:21;;;;;;;;;;;;;;;;;;5010675;28;19925;-54
2022/11/23 12:13:47;;;;;;;;;;;;;;;;;;4997562;28;19929;-55
2022/11/23 12:16:13;;;;;;;;;;;;;;;;;;5007411;28;20306;-55
2022/11/23 12:18:39;;;;;;;;;;;;;;;;;;5007544;28;20038;-55
2022/11/23 12:21:05;;;;;;;;;;;;;;;;;;5004393;28;19921;-55
2022/11/23 12:23:31;;;;;;;;;;;;;;;;;;5015801;28;19979;-55
2022/11/23 12:25:56;;;;;;;;;;;;;;;;;;5005607;28;19990;-55
2022/11/23 12:28:22;;;;;;;;;;;;;;;;;;5003175;28;19925;-55
2022/11/23 12:30:48;;;;;;;;;;;;;;;;;;4984066;28;20374;-54
2022/11/23 12:33:15;;;;;;;;;;;;;;;;;;5012185;28;19924;-55
2022/11/23 12:35:41;;;;;;;;;;;;;;;;;;5029280;28;19901;-54
2022/11/23 12:38:07;;;;;;;;;;;;;;;;;;5024139;28;20287;-55
2022/11/23 12:40:33;;;;;;;;;;;;;;;;;;4998392;28;20358;-55
2022/11/23 12:42:59;;;;;;;;;;;;;;;;;;5001011;28;19949;-55
2022/11/23 12:45:25;;;;;;;;;;;;;;;;;;5008721;28;19920;-54
2022/11/23 12:47:51;;;;;;;;;;;;;;;;;;5014458;28;19936;-54
2022/11/23 12:50:17;;;;;;;;;;;;;;;;;;4989538;28;19972;-55
2022/11/23 12:52:43;;;;;;;;;;;;;;;;;;5010618;28;20028;-55
2022/11/23 12:55:08;;;;;;;;;;;;;;;;;;5014850;28;20359;-55
2022/11/23 12:57:34;;;;;;;;;;;;;;;;;;4992573;28;22045;-54
2022/11/23 13:00:00;;;;;;;;;;;;;;;;;;4995115;28;19928;-55
2022/11/23 13:02:26;;;;;;;;;;;;;;;;;;4999515;28;19917;-55
2022/11/23 13:04:52;;;;;;;;;;;;;;;;;;4999216;28;20011;-54
2022/11/23 13:07:18;;;;;;;;;;;;;;;;;;5008671;28;19922;-55
2022/11/23 13:09:44;;;;;;;;;;;;;;;;;;5004044;28;20322;-54
2022/11/23 13:12:09;;;;;;;;;;;;;;;;;;4981005;28;19925;-54
2022/11/23 13:14:35;;;;;;;;;;;;;;;;;;4973790;28;21103;-54
2022/11/23 13:17:01;;;;;;;;;;;;;;;;;;4989434;28;19917;-54
2022/11/23 13:19:27;;;;;;;;;;;;;;;;;;4967465;28;20012;-55
2022/11/23 13:21:53;;;;;;;;;;;;;;;;;;4995093;28;19928;-54
2022/11/23 13:24:19;;;;;;;;;;;;;;;;;;4993893;28;19926;-54
2022/11/23 13:26:45;;;;;;;;;;;;;;;;;;4986838;28;19922;-54
2022/11/23 13:29:11;;;;;;;;;;;;;;;;;;4970046;28;20428;-55
2022/11/23 13:31:37;;;;;;;;;;;;;;;;;;4988729;28;19925;-54
2022/11/23 13:34:03;;;;;;;;;;;;;;;;;;4985908;28;20000;-54
2022/11/23 13:36:28;;;;;;;;;;;;;;;;;;4987245;28;20067;-54
2022/11/23 13:38:54;;;;;;;;;;;;;;;;;;4996693;28;19963;-54
2022/11/23 13:41:21;;;;;;;;;;;;;;;;;;4983837;28;19925;-54
2022/11/23 13:43:46;;;;;;;;;;;;;;;;;;4994467;28;19925;-58
2022/11/23 13:46:12;;;;;;;;;;;;;;;;;;4996545;28;19922;-53
2022/11/23 13:48:38;;;;;;;;;;;;;;;;;;5004944;28;20371;-54
2022/11/23 13:51:04;;;;;;;;;;;;;;;;;;4993419;28;19928;-53
2022/11/23 13:53:30;;;;;;;;;;;;;;;;;;4979757;28;19925;-53
2022/11/23 13:55:56;;;;;;;;;;;;;;;;;;4960999;28;19944;-53
2022/11/23 13:58:25;;;;;;;;;;;;;;;;;;5003697;28;19913;-53
2022/11/23 14:00:51;;;;;;;;;;;;;;;;;;4988091;28;19987;-53
2022/11/23 14:03:16;;;;;;;;;;;;;;;;;;4998304;28;19918;-53
2022/11/23 14:05:42;;;;;;;;;;;;;;;;;;4991507;28;20886;-53
2022/11/23 14:08:08;;;;;;;;;;;;;;;;;;4999004;28;19973;-53
2022/11/23 14:10:34;;;;;;;;;;;;;;;;;;5002488;28;19922;-53
2022/11/23 14:13:00;;;;;;;;;;;;;;;;;;4999714;28;19979;-53
2022/11/23 14:15:26;;;;;;;;;;;;;;;;;;5004317;28;19929;-53
2022/11/23 14:17:52;;;;;;;;;;;;;;;;;;4977984;28;19917;-53
2022/11/23 14:20:18;;;;;;;;;;;;;;;;;;4998790;28;19918;-52
2022/11/23 14:22:43;;;;;;;;;;;;;;;;;;5001420;28;19953;-53
2022/11/23 14:25:09;;;;;;;;;;;;;;;;;;5013980;28;19926;-53
2022/11/23 14:27:35;;;;;;;;;;;;;;;;;;5001698;28;20388;-52
2022/11/23 14:30:01;;;;;;;;;;;;;;;;;;4981458;28;19971;-53
2022/11/23 14:32:27;;;;;;;;;;;;;;;;;;4990745;28;19925;-52
2022/11/23 14:34:53;;;;;;;;;;;;;;;;;;4987005;28;19925;-55
2022/11/23 14:37:19;;;;;;;;;;;;;;;;;;4993151;28;20002;-52
2022/11/23 14:39:45;;;;;;;;;;;;;;;;;;5007004;28;19922;-53
2022/11/23 14:42:10;;;;;;;;;;;;;;;;;;5006875;28;20311;-53
2022/11/23 14:44:36;;;;;;;;;;;;;;;;;;5021612;28;19916;-52
2022/11/23 14:47:02;;;;;;;;;;;;;;;;;;4999770;28;19947;-52
2022/11/23 14:49:28;;;;;;;;;;;;;;;;;;5000044;28;20453;-52
2022/11/23 14:51:54;;;;;;;;;;;;;;;;;;5011204;28;19928;-52
2022/11/23 14:54:20;;;;;;;;;;;;;;;;;;5005416;28;20021;-52
2022/11/23 14:56:46;;;;;;;;;;;;;;;;;;5003612;28;19931;-53
2022/11/23 14:59:12;;;;;;;;;;;;;;;;;;4998125;28;19933;-53
2022/11/23 15:01:39;;;;;;;;;;;;;;;;;;5002915;28;20391;-53
2022/11/23 15:04:04;;;;;;;;;;;;;;;;;;4990027;28;19921;-52
2022/11/23 15:06:30;;;;;;;;;;;;;;;;;;4982284;28;19949;-53
2022/11/23 15:08:56;;;;;;;;;;;;;;;;;;4982450;28;19930;-53
2022/11/23 15:11:22;;;;;;;;;;;;;;;;;;5000300;28;19926;-53
2022/11/23 15:13:48;;;;;;;;;;;;;;;;;;5014487;28;20008;-53
2022/11/23 15:16:14;;;;;;;;;;;;;;;;;;5007003;28;19924;-53
2022/11/23 15:18:41;;;;;;;;;;;;;;;;;;5003212;28;21523;-53
2022/11/23 15:21:07;;;;;;;;;;;;;;;;;;5011133;28;19926;-53
2022/11/23 15:23:33;;;;;;;;;;;;;;;;;;5007384;28;19928;-53
2022/11/23 15:25:59;;;;;;;;;;;;;;;;;;5018187;28;19932;-53
2022/11/23 15:28:25;;;;;;;;;;;;;;;;;;5010850;28;19930;-53
2022/11/23 15:30:51;;;;;;;;;;;;;;;;;;5022626;28;19921;-53
2022/11/23 15:33:17;;;;;;;;;;;;;;;;;;5015527;28;19925;-53
2022/11/23 15:35:43;;;;;;;;;;;;;;;;;;5008535;28;19925;-53
2022/11/23 15:38:08;;;;;;;;;;;;;;;;;;5003460;28;19992;-53
2022/11/23 15:40:34;;;;;;;;;;;;;;;;;;4994637;28;19933;-52
2022/11/23 15:43:00;;;;;;;;;;;;;;;;;;4981532;28;20343;-53
2022/11/23 15:45:26;;;;;;;;;;;;;;;;;;4994430;28;19929;-53
2022/11/23 15:47:52;;;;;;;;;;;;;;;;;;5009709;28;19918;-53
2022/11/23 15:50:18;;;;;;;;;;;;;;;;;;5008907;28;19926;-53
2022/11/23 15:52:44;;;;;;;;;;;;;;;;;;5004453;28;19963;-53
2022/11/23 15:55:09;;;;;;;;;;;;;;;;;;4984842;28;20016;-53
2022/11/23 15:57:35;;;;;;;;;;;;;;;;;;5016959;28;20564;-53
2022/11/23 16:00:02;;;;;;;;;;;;;;;;;;5012506;28;20520;-52
2022/11/23 16:02:28;;;;;;;;;;;;;;;;;;5004895;28;19917;-52
2022/11/23 16:04:54;;;;;;;;;;;;;;;;;;4987536;28;20336;-53
2022/11/23 16:07:19;;;;;;;;;;;;;;;;;;4990868;28;19964;-53
2022/11/23 16:09:48;;;;;;;;;;;;;;;;;;4997730;28;19930;-53
2022/11/23 16:12:14;;;;;;;;;;;;;;;;;;4998432;28;20312;-53
2022/11/23 16:14:40;;;;;;;;;;;;;;;;;;4998256;28;19925;-53
2022/11/23 16:17:06;;;;;;;;;;;;;;;;;;4994023;28;19925;-53
2022/11/23 16:19:32;;;;;;;;;;;;;;;;;;5004878;28;19931;-53
2022/11/23 16:21:58;;;;;;;;;;;;;;;;;;4991205;28;20326;-53
2022/11/23 16:24:24;;;;;;;;;;;;;;;;;;4985313;28;19916;-53
2022/11/23 16:26:50;;;;;;;;;;;;;;;;;;5000257;28;20441;-53
2022/11/23 16:29:16;;;;;;;;;;;;;;;;;;5009661;28;20301;-53
2022/11/23 16:31:42;;;;;;;;;;;;;;;;;;5000236;28;19918;-52
2022/11/23 16:34:07;;;;;;;;;;;;;;;;;;4989755;28;20680;-53
2022/11/23 16:36:33;;;;;;;;;;;;;;;;;;4978592;28;19921;-53